Time;durP1;ratioP1;P1;durP2;ratioP2;P2;SDS_P1;SDS_P2;PMS_P1;PMS_P2;Temp;Humidity;BMP_temperature;BMP_pressure;BME280_temperature;BME280_humidity;BME280_pressure;Samples;Min_cycle;Max_cycle;Signal;HPM_P1;HPM_P2
2022/04/01 00:02:03;;;;;;;;;;;;;;;;;;5015538;28;837;-67
2022/04/01 00:04:28;;;;;;;;;;;;;;;;;;5032621;28;912;-67
2022/04/01 00:06:53;;;;;;;;;;;;;;;;;;5032423;28;947;-67
2022/04/01 00:09:18;;;;;;;;;;;;;;;;;;5032532;28;872;-67
2022/04/01 00:11:44;;;;;;;;;;;;;;;;;;5032340;28;1918;-67
2022/04/01 00:14:09;;;;;;;;;;;;;;;;;;5032301;28;830;-65
2022/04/01 00:16:35;;;;;;;;;;;;;;;;;;5032141;28;821;-65
2022/04/01 00:19:00;;;;;;;;;;;;;;;;;;5014017;28;884;-66
2022/04/01 00:21:25;;;;;;;;;;;;;;;;;;5030839;28;814;-66
2022/04/01 00:23:51;;;;;;;;;;;;;;;;;;5031545;28;841;-67
2022/04/01 00:26:16;;;;;;;;;;;;;;;;;;5031687;28;885;-66
2022/04/01 00:28:41;;;;;;;;;;;;;;;;;;5031721;28;811;-67
2022/04/01 00:31:09;;;;;;;;;;;;;;;;;;5031397;28;1934;-66
2022/04/01 00:33:34;;;;;;;;;;;;;;;;;;5031703;28;864;-66
2022/04/01 00:35:59;;;;;;;;;;;;;;;;;;5031439;28;1323;-66
2022/04/01 00:38:25;;;;;;;;;;;;;;;;;;5031410;28;930;-66
2022/04/01 00:40:51;;;;;;;;;;;;;;;;;;5013310;28;826;-66
2022/04/01 00:43:17;;;;;;;;;;;;;;;;;;5013826;28;810;-66
2022/04/01 00:45:42;;;;;;;;;;;;;;;;;;5013564;28;743;-66
2022/04/01 00:48:07;;;;;;;;;;;;;;;;;;5013408;28;1035;-66
2022/04/01 00:50:33;;;;;;;;;;;;;;;;;;5031115;28;890;-66
2022/04/01 00:52:59;;;;;;;;;;;;;;;;;;5030995;28;1914;-66
2022/04/01 00:55:25;;;;;;;;;;;;;;;;;;5031145;28;893;-65
2022/04/01 00:57:51;;;;;;;;;;;;;;;;;;5031086;28;1025;-66
2022/04/01 01:00:19;;;;;;;;;;;;;;;;;;5031115;28;849;-66
2022/04/01 01:02:44;;;;;;;;;;;;;;;;;;5031677;28;902;-66
2022/04/01 01:05:10;;;;;;;;;;;;;;;;;;5031147;28;904;-67
2022/04/01 01:07:38;;;;;;;;;;;;;;;;;;5030926;28;979;-66
2022/04/01 01:10:04;;;;;;;;;;;;;;;;;;5030740;28;889;-66
2022/04/01 01:12:29;;;;;;;;;;;;;;;;;;5012855;28;1910;-67
2022/04/01 01:14:55;;;;;;;;;;;;;;;;;;5030484;28;829;-66
2022/04/01 01:17:21;;;;;;;;;;;;;;;;;;5031056;28;806;-66
2022/04/01 01:19:46;;;;;;;;;;;;;;;;;;5013584;28;845;-66
2022/04/01 01:22:13;;;;;;;;;;;;;;;;;;5030846;28;829;-66
2022/04/01 01:24:41;;;;;;;;;;;;;;;;;;5030733;28;818;-66
2022/04/01 01:27:07;;;;;;;;;;;;;;;;;;5030557;28;797;-66
2022/04/01 01:29:33;;;;;;;;;;;;;;;;;;5012891;28;906;-66
2022/04/01 01:31:59;;;;;;;;;;;;;;;;;;5030620;28;1922;-66
2022/04/01 01:34:25;;;;;;;;;;;;;;;;;;5030585;28;1074;-66
2022/04/01 01:36:51;;;;;;;;;;;;;;;;;;5030421;28;1173;-66
2022/04/01 01:39:17;;;;;;;;;;;;;;;;;;5030394;28;846;-66
2022/04/01 01:41:43;;;;;;;;;;;;;;;;;;5031048;28;944;-66
2022/04/01 01:44:10;;;;;;;;;;;;;;;;;;5030914;28;894;-66
2022/04/01 01:46:35;;;;;;;;;;;;;;;;;;5013365;28;817;-66
2022/04/01 01:49:01;;;;;;;;;;;;;;;;;;5030706;28;822;-67
2022/04/01 01:56:53;;;;;;;;;;;;;;;;;;5031305;28;1037;-65
2022/04/01 01:59:19;;;;;;;;;;;;;;;;;;5030627;28;822;-66
2022/04/01 02:01:45;;;;;;;;;;;;;;;;;;5031074;28;912;-66
2022/04/01 02:04:11;;;;;;;;;;;;;;;;;;5030844;28;911;-66
2022/04/01 02:06:37;;;;;;;;;;;;;;;;;;5030623;28;841;-66
2022/04/01 02:09:02;;;;;;;;;;;;;;;;;;5045167;28;848;-66
2022/04/01 02:11:28;;;;;;;;;;;;;;;;;;5030227;28;1953;-66
2022/04/01 02:13:53;;;;;;;;;;;;;;;;;;5030856;28;765;-66
2022/04/01 02:16:21;;;;;;;;;;;;;;;;;;5029986;28;891;-66
2022/04/01 02:18:47;;;;;;;;;;;;;;;;;;5030831;28;865;-66
2022/04/01 02:21:15;;;;;;;;;;;;;;;;;;5029842;28;973;-66
2022/04/01 02:23:51;;;;;;;;;;;;;;;;;;5030311;28;830;-66
2022/04/01 02:26:16;;;;;;;;;;;;;;;;;;5029744;28;928;-66
2022/04/01 02:28:42;;;;;;;;;;;;;;;;;;5030236;28;937;-66
2022/04/01 02:31:08;;;;;;;;;;;;;;;;;;5030095;28;1898;-67
2022/04/01 02:33:34;;;;;;;;;;;;;;;;;;5030085;28;837;-66
2022/04/01 02:36:00;;;;;;;;;;;;;;;;;;5030216;28;1042;-66
2022/04/01 02:38:26;;;;;;;;;;;;;;;;;;5029686;28;837;-66
2022/04/01 02:40:53;;;;;;;;;;;;;;;;;;5012201;28;1294;-66
2022/04/01 02:43:18;;;;;;;;;;;;;;;;;;5029779;28;841;-67
2022/04/01 02:45:43;;;;;;;;;;;;;;;;;;5032726;28;780;-66
2022/04/01 02:48:09;;;;;;;;;;;;;;;;;;5033489;28;858;-66
2022/04/01 02:50:34;;;;;;;;;;;;;;;;;;5033275;28;840;-66
2022/04/01 02:52:59;;;;;;;;;;;;;;;;;;5033808;28;1910;-66
2022/04/01 02:55:24;;;;;;;;;;;;;;;;;;5032981;28;809;-66
2022/04/01 02:57:50;;;;;;;;;;;;;;;;;;5033595;28;1046;-66
2022/04/01 03:00:21;;;;;;;;;;;;;;;;;;5033231;28;765;-67
2022/04/01 03:02:47;;;;;;;;;;;;;;;;;;5033523;28;921;-66
2022/04/01 03:05:13;;;;;;;;;;;;;;;;;;5032957;28;879;-66
2022/04/01 03:07:38;;;;;;;;;;;;;;;;;;5032925;28;1397;-66
2022/04/01 03:10:04;;;;;;;;;;;;;;;;;;5033221;28;825;-66
2022/04/01 03:12:30;;;;;;;;;;;;;;;;;;5032851;28;1961;-67
2022/04/01 03:14:56;;;;;;;;;;;;;;;;;;5033027;28;822;-67
2022/04/01 03:17:21;;;;;;;;;;;;;;;;;;5033014;28;871;-66
2022/04/01 03:19:46;;;;;;;;;;;;;;;;;;5033433;28;860;-66
2022/04/01 03:22:12;;;;;;;;;;;;;;;;;;5033201;28;896;-66
2022/04/01 03:24:37;;;;;;;;;;;;;;;;;;5015185;28;908;-66
2022/04/01 03:27:03;;;;;;;;;;;;;;;;;;5033442;28;869;-66
2022/04/01 03:29:30;;;;;;;;;;;;;;;;;;5032492;28;928;-66
2022/04/01 03:31:55;;;;;;;;;;;;;;;;;;5032926;28;1905;-66
2022/04/01 03:34:20;;;;;;;;;;;;;;;;;;5032655;28;995;-67
2022/04/01 03:36:46;;;;;;;;;;;;;;;;;;5015745;28;1308;-67
2022/04/01 03:39:12;;;;;;;;;;;;;;;;;;5032878;28;1007;-67
2022/04/01 03:41:38;;;;;;;;;;;;;;;;;;5032509;28;1386;-67
2022/04/01 03:44:03;;;;;;;;;;;;;;;;;;5033241;28;913;-66
2022/04/01 03:46:35;;;;;;;;;;;;;;;;;;5032447;28;877;-66
2022/04/01 03:49:02;;;;;;;;;;;;;;;;;;5032178;28;846;-66
2022/04/01 03:51:29;;;;;;;;;;;;;;;;;;5031612;28;1910;-67
2022/04/01 03:53:58;;;;;;;;;;;;;;;;;;5032409;28;1003;-67
2022/04/01 03:56:28;;;;;;;;;;;;;;;;;;5031880;28;750;-66
2022/04/01 03:58:59;;;;;;;;;;;;;;;;;;5032486;28;974;-66
2022/04/01 04:01:24;;;;;;;;;;;;;;;;;;5032107;28;900;-67
2022/04/01 04:03:50;;;;;;;;;;;;;;;;;;5032628;28;825;-66
2022/04/01 04:06:16;;;;;;;;;;;;;;;;;;5032375;28;999;-66
2022/04/01 04:08:43;;;;;;;;;;;;;;;;;;5014301;28;912;-66
2022/04/01 04:11:09;;;;;;;;;;;;;;;;;;5032135;28;1894;-67
2022/04/01 04:13:37;;;;;;;;;;;;;;;;;;5013548;28;671;-67
2022/04/01 04:16:05;;;;;;;;;;;;;;;;;;5032342;28;833;-67
2022/04/01 04:18:51;;;;;;;;;;;;;;;;;;5031461;28;990;-66
2022/04/01 04:21:24;;;;;;;;;;;;;;;;;;5031150;28;1689;-66
2022/04/01 04:23:54;;;;;;;;;;;;;;;;;;5032069;28;856;-67
2022/04/01 04:26:23;;;;;;;;;;;;;;;;;;5031212;28;900;-67
2022/04/01 04:28:50;;;;;;;;;;;;;;;;;;5031642;28;802;-67
2022/04/01 04:31:22;;;;;;;;;;;;;;;;;;5032013;28;1898;-66
2022/04/01 04:33:48;;;;;;;;;;;;;;;;;;5031579;28;777;-66
2022/04/01 04:36:19;;;;;;;;;;;;;;;;;;5031188;28;1086;-66
2022/04/01 04:38:45;;;;;;;;;;;;;;;;;;5031110;28;860;-66
2022/04/01 04:41:11;;;;;;;;;;;;;;;;;;5031028;28;1032;-66
2022/04/01 04:43:44;;;;;;;;;;;;;;;;;;5031284;28;860;-66
2022/04/01 04:46:10;;;;;;;;;;;;;;;;;;5031455;28;861;-65
2022/04/01 04:48:37;;;;;;;;;;;;;;;;;;5030693;28;801;-65
2022/04/01 04:51:03;;;;;;;;;;;;;;;;;;5031371;28;918;-66
2022/04/01 04:53:29;;;;;;;;;;;;;;;;;;5031130;28;892;-66
2022/04/01 04:55:57;;;;;;;;;;;;;;;;;;5031287;28;813;-66
2022/04/01 04:58:25;;;;;;;;;;;;;;;;;;5031071;28;1032;-66
2022/04/01 05:00:53;;;;;;;;;;;;;;;;;;5031461;28;971;-66
2022/04/01 05:03:34;;;;;;;;;;;;;;;;;;5031087;28;976;-66
2022/04/01 05:06:01;;;;;;;;;;;;;;;;;;5031407;28;829;-66
2022/04/01 05:08:36;;;;;;;;;;;;;;;;;;5030674;28;807;-66
2022/04/01 05:11:30;;;;;;;;;;;;;;;;;;5031546;28;856;-66
2022/04/01 05:13:59;;;;;;;;;;;;;;;;;;5022383;28;1259;-66
2022/04/01 05:16:35;;;;;;;;;;;;;;;;;;5031170;28;841;-66
2022/04/01 05:19:09;;;;;;;;;;;;;;;;;;5031700;28;767;-66
2022/04/01 05:21:43;;;;;;;;;;;;;;;;;;5031267;28;817;-66
2022/04/01 05:24:11;;;;;;;;;;;;;;;;;;5031287;28;864;-67
2022/04/01 05:26:41;;;;;;;;;;;;;;;;;;5030944;28;861;-66
2022/04/01 05:29:09;;;;;;;;;;;;;;;;;;5046516;28;1463;-66
2022/04/01 05:31:36;;;;;;;;;;;;;;;;;;5030422;28;1892;-66
2022/04/01 05:34:09;;;;;;;;;;;;;;;;;;5029597;28;1141;-65
2022/04/01 05:36:36;;;;;;;;;;;;;;;;;;5028650;28;1228;-65
2022/04/01 05:39:03;;;;;;;;;;;;;;;;;;5029307;28;1232;-65
2022/04/01 05:41:28;;;;;;;;;;;;;;;;;;5030206;28;1121;-65
2022/04/01 05:43:57;;;;;;;;;;;;;;;;;;4996437;28;1984;-65
2022/04/01 05:46:23;;;;;;;;;;;;;;;;;;5030608;28;841;-65
2022/04/01 05:48:49;;;;;;;;;;;;;;;;;;5030423;28;813;-65
2022/04/01 05:51:15;;;;;;;;;;;;;;;;;;5030320;28;1894;-65
2022/04/01 05:53:43;;;;;;;;;;;;;;;;;;5030073;28;778;-65
2022/04/01 05:56:09;;;;;;;;;;;;;;;;;;5030608;28;825;-65
2022/04/01 05:58:35;;;;;;;;;;;;;;;;;;5029842;28;914;-65
2022/04/01 06:01:00;;;;;;;;;;;;;;;;;;5030540;28;1206;-65
2022/04/01 06:03:35;;;;;;;;;;;;;;;;;;5030242;28;829;-65
2022/04/01 06:06:01;;;;;;;;;;;;;;;;;;5030324;28;806;-65
2022/04/01 06:08:27;;;;;;;;;;;;;;;;;;5030128;28;936;-65
2022/04/01 06:10:58;;;;;;;;;;;;;;;;;;5012579;28;1415;-65
2022/04/01 06:13:42;;;;;;;;;;;;;;;;;;5030247;28;1902;-65
2022/04/01 06:16:26;;;;;;;;;;;;;;;;;;5030178;28;822;-67
2022/04/01 06:19:08;;;;;;;;;;;;;;;;;;5030261;28;892;-66
2022/04/01 06:21:56;;;;;;;;;;;;;;;;;;5033792;28;841;-67
2022/04/01 06:24:45;;;;;;;;;;;;;;;;;;5027769;28;1699;-66
2022/04/01 06:27:21;;;;;;;;;;;;;;;;;;5028225;28;1708;-67
2022/04/01 06:29:50;;;;;;;;;;;;;;;;;;5033850;28;910;-67
2022/04/01 06:32:26;;;;;;;;;;;;;;;;;;5034018;28;1970;-67
2022/04/01 06:35:02;;;;;;;;;;;;;;;;;;5033403;28;1297;-67
2022/04/01 06:37:28;;;;;;;;;;;;;;;;;;5033363;28;1010;-67
2022/04/01 06:40:00;;;;;;;;;;;;;;;;;;5033283;28;908;-67
2022/04/01 06:42:26;;;;;;;;;;;;;;;;;;5033147;28;907;-67
2022/04/01 06:44:52;;;;;;;;;;;;;;;;;;5033476;28;888;-67
2022/04/01 06:47:17;;;;;;;;;;;;;;;;;;5034278;28;839;-67
2022/04/01 06:49:42;;;;;;;;;;;;;;;;;;5033522;28;851;-67
2022/04/01 06:52:08;;;;;;;;;;;;;;;;;;5033288;28;1902;-67
2022/04/01 06:54:33;;;;;;;;;;;;;;;;;;5033424;28;813;-66
2022/04/01 06:56:58;;;;;;;;;;;;;;;;;;5033021;28;932;-66
2022/04/01 06:59:24;;;;;;;;;;;;;;;;;;5033291;28;959;-66
2022/04/01 07:01:49;;;;;;;;;;;;;;;;;;5015300;28;991;-67
2022/04/01 07:04:15;;;;;;;;;;;;;;;;;;5033888;28;858;-67
2022/04/01 07:06:40;;;;;;;;;;;;;;;;;;5033207;28;821;-67
2022/04/01 07:09:06;;;;;;;;;;;;;;;;;;5033644;28;947;-69
2022/04/01 07:11:32;;;;;;;;;;;;;;;;;;5033287;28;1890;-67
2022/04/01 07:13:58;;;;;;;;;;;;;;;;;;5033400;28;876;-67
2022/04/01 07:16:23;;;;;;;;;;;;;;;;;;5033186;28;1021;-60
2022/04/01 07:18:48;;;;;;;;;;;;;;;;;;5033625;28;916;-60
2022/04/01 07:21:13;;;;;;;;;;;;;;;;;;5033484;28;989;-60
2022/04/01 07:23:39;;;;;;;;;;;;;;;;;;5032998;28;1009;-60
2022/04/01 07:26:04;;;;;;;;;;;;;;;;;;5033393;28;869;-60
2022/04/01 07:28:30;;;;;;;;;;;;;;;;;;5033032;28;865;-60
2022/04/01 07:30:55;;;;;;;;;;;;;;;;;;5032463;28;880;-60
2022/04/01 07:33:20;;;;;;;;;;;;;;;;;;5033081;28;1906;-60
2022/04/01 07:35:47;;;;;;;;;;;;;;;;;;5031263;28;1019;-60
2022/04/01 07:38:12;;;;;;;;;;;;;;;;;;5032605;28;1126;-60
2022/04/01 07:40:38;;;;;;;;;;;;;;;;;;5032423;28;975;-60
2022/04/01 07:43:03;;;;;;;;;;;;;;;;;;5032112;28;912;-60
2022/04/01 07:45:29;;;;;;;;;;;;;;;;;;5032386;28;1256;-61
2022/04/01 07:47:55;;;;;;;;;;;;;;;;;;5032098;28;920;-60
2022/04/01 07:50:21;;;;;;;;;;;;;;;;;;5032361;28;888;-60
2022/04/01 07:52:46;;;;;;;;;;;;;;;;;;5032030;28;1985;-60
2022/04/01 07:55:13;;;;;;;;;;;;;;;;;;5032361;28;814;-60
2022/04/01 07:57:38;;;;;;;;;;;;;;;;;;5047429;28;989;-60
2022/04/01 08:00:04;;;;;;;;;;;;;;;;;;5032088;28;845;-60
2022/04/01 08:02:30;;;;;;;;;;;;;;;;;;5031882;28;1108;-60
2022/04/01 08:04:55;;;;;;;;;;;;;;;;;;5032317;28;876;-60
2022/04/01 08:07:22;;;;;;;;;;;;;;;;;;5032318;28;869;-60
2022/04/01 08:09:49;;;;;;;;;;;;;;;;;;5014880;28;845;-60
2022/04/01 08:12:15;;;;;;;;;;;;;;;;;;5014556;28;1898;-60
2022/04/01 08:14:41;;;;;;;;;;;;;;;;;;5032016;28;806;-60
2022/04/01 08:17:06;;;;;;;;;;;;;;;;;;5031812;28;1176;-60
2022/04/01 08:19:32;;;;;;;;;;;;;;;;;;5031828;28;821;-60
2022/04/01 08:21:58;;;;;;;;;;;;;;;;;;5032027;28;805;-60
2022/04/01 08:24:24;;;;;;;;;;;;;;;;;;5032200;28;819;-60
2022/04/01 08:26:50;;;;;;;;;;;;;;;;;;5032057;28;885;-60
2022/04/01 08:29:15;;;;;;;;;;;;;;;;;;5030760;28;1686;-60
2022/04/01 08:31:41;;;;;;;;;;;;;;;;;;5013489;28;1910;-60
2022/04/01 08:34:06;;;;;;;;;;;;;;;;;;5031980;28;837;-60
2022/04/01 08:36:32;;;;;;;;;;;;;;;;;;5031495;28;1175;-60
2022/04/01 08:38:57;;;;;;;;;;;;;;;;;;5031456;28;903;-60
2022/04/01 08:41:23;;;;;;;;;;;;;;;;;;5031600;28;900;-60
2022/04/01 08:43:49;;;;;;;;;;;;;;;;;;5031616;28;899;-60
2022/04/01 08:46:15;;;;;;;;;;;;;;;;;;5000791;28;1182;-60
2022/04/01 08:48:41;;;;;;;;;;;;;;;;;;5050856;28;1145;-60
2022/04/01 08:51:07;;;;;;;;;;;;;;;;;;5051357;28;908;-61
2022/04/01 08:53:37;;;;;;;;;;;;;;;;;;5050900;28;1886;-60
2022/04/01 08:56:03;;;;;;;;;;;;;;;;;;5051733;28;843;-61
2022/04/01 08:58:28;;;;;;;;;;;;;;;;;;5051336;28;997;-60
2022/04/01 09:00:53;;;;;;;;;;;;;;;;;;5051755;28;817;-60
2022/04/01 09:03:21;;;;;;;;;;;;;;;;;;5051685;28;833;-60
2022/04/01 09:05:56;;;;;;;;;;;;;;;;;;5033827;28;814;-60
2022/04/01 09:08:23;;;;;;;;;;;;;;;;;;5052173;28;794;-60
2022/04/01 09:11:08;;;;;;;;;;;;;;;;;;5052015;28;896;-60
2022/04/01 09:13:34;;;;;;;;;;;;;;;;;;5051493;28;1894;-60
2022/04/01 09:16:02;;;;;;;;;;;;;;;;;;5051948;28;723;-60
2022/04/01 09:18:41;;;;;;;;;;;;;;;;;;5051205;28;1434;-60
2022/04/01 09:21:07;;;;;;;;;;;;;;;;;;5051561;28;1015;-60
2022/04/01 09:23:32;;;;;;;;;;;;;;;;;;5051461;28;972;-60
2022/04/01 09:25:58;;;;;;;;;;;;;;;;;;5051337;28;809;-60
2022/04/01 09:28:29;;;;;;;;;;;;;;;;;;5051635;28;885;-60
2022/04/01 09:31:22;;;;;;;;;;;;;;;;;;5051265;28;805;-60
2022/04/01 09:33:47;;;;;;;;;;;;;;;;;;5031166;28;1201;-60
2022/04/01 09:36:14;;;;;;;;;;;;;;;;;;5050432;28;1219;-62
2022/04/01 09:38:50;;;;;;;;;;;;;;;;;;5050499;28;821;-61
2022/04/01 09:41:17;;;;;;;;;;;;;;;;;;5050542;28;825;-61
2022/04/01 09:43:42;;;;;;;;;;;;;;;;;;5050720;28;901;-61
2022/04/01 09:46:24;;;;;;;;;;;;;;;;;;5050894;28;999;-60
2022/04/01 09:48:50;;;;;;;;;;;;;;;;;;5050917;28;785;-61
2022/04/01 09:51:15;;;;;;;;;;;;;;;;;;5066027;28;1910;-61
2022/04/01 09:53:49;;;;;;;;;;;;;;;;;;5051922;28;892;-61
2022/04/01 09:56:14;;;;;;;;;;;;;;;;;;5036712;28;904;-61
2022/04/01 09:58:40;;;;;;;;;;;;;;;;;;5054739;28;1047;-61
2022/04/01 10:01:05;;;;;;;;;;;;;;;;;;5054522;28;841;-61
2022/04/01 10:03:30;;;;;;;;;;;;;;;;;;5054831;28;1080;-60
2022/04/01 10:05:56;;;;;;;;;;;;;;;;;;5054765;28;896;-60
2022/04/01 10:08:24;;;;;;;;;;;;;;;;;;5054222;28;807;-59
2022/04/01 10:10:51;;;;;;;;;;;;;;;;;;5054678;28;955;-59
2022/04/01 10:13:29;;;;;;;;;;;;;;;;;;5036556;28;1883;-60
2022/04/01 10:15:56;;;;;;;;;;;;;;;;;;5054568;28;888;-59
2022/04/01 10:18:22;;;;;;;;;;;;;;;;;;5054268;28;854;-59
2022/04/01 10:20:48;;;;;;;;;;;;;;;;;;5054359;28;857;-59
2022/04/01 10:23:14;;;;;;;;;;;;;;;;;;5054324;28;986;-59
2022/04/01 10:25:59;;;;;;;;;;;;;;;;;;5053629;28;867;-59
2022/04/01 10:28:26;;;;;;;;;;;;;;;;;;5053742;28;852;-59
2022/04/01 10:30:52;;;;;;;;;;;;;;;;;;5054021;28;833;-59
2022/04/01 10:33:22;;;;;;;;;;;;;;;;;;5053960;28;1949;-59
2022/04/01 10:35:47;;;;;;;;;;;;;;;;;;5054046;28;1327;-60
2022/04/01 10:38:12;;;;;;;;;;;;;;;;;;5054530;28;895;-59
2022/04/01 10:40:42;;;;;;;;;;;;;;;;;;5054291;28;1070;-59
2022/04/01 10:43:15;;;;;;;;;;;;;;;;;;5054081;28;948;-60
2022/04/01 10:45:41;;;;;;;;;;;;;;;;;;5054016;28;893;-59
2022/04/01 10:54:00;;;;;;;;;;;;;;;;;;5054541;28;666;-59
2022/04/01 10:56:29;;;;;;;;;;;;;;;;;;5053839;28;1813;-60
2022/04/01 10:59:05;;;;;;;;;;;;;;;;;;5054996;28;1066;-59
2022/04/01 11:01:43;;;;;;;;;;;;;;;;;;5054371;28;823;-59
2022/04/01 11:04:09;;;;;;;;;;;;;;;;;;5054500;28;908;-60
2022/04/01 11:06:49;;;;;;;;;;;;;;;;;;5053529;28;838;-59
2022/04/01 11:09:31;;;;;;;;;;;;;;;;;;5054513;28;813;-60
2022/04/01 11:12:19;;;;;;;;;;;;;;;;;;5054384;28;1897;-59
2022/04/01 11:15:09;;;;;;;;;;;;;;;;;;5054867;28;832;-59
2022/04/01 11:17:34;;;;;;;;;;;;;;;;;;5054093;28;875;-59
2022/04/01 11:20:09;;;;;;;;;;;;;;;;;;5054736;28;883;-60
2022/04/01 11:22:41;;;;;;;;;;;;;;;;;;5054110;28;758;-60
2022/04/01 11:25:07;;;;;;;;;;;;;;;;;;5053951;28;841;-59
2022/04/01 11:27:36;;;;;;;;;;;;;;;;;;5053569;28;896;-59
2022/04/01 11:30:06;;;;;;;;;;;;;;;;;;5053583;28;892;-59
2022/04/01 11:32:33;;;;;;;;;;;;;;;;;;5053590;28;1959;-59
2022/04/01 11:34:58;;;;;;;;;;;;;;;;;;5053643;28;762;-60
2022/04/01 11:37:24;;;;;;;;;;;;;;;;;;5035004;28;1211;-60
2022/04/01 11:39:49;;;;;;;;;;;;;;;;;;5068878;28;1467;-59
2022/04/01 11:42:15;;;;;;;;;;;;;;;;;;5053535;28;902;-59
2022/04/01 11:44:52;;;;;;;;;;;;;;;;;;5053218;28;999;-60
2022/04/01 11:47:24;;;;;;;;;;;;;;;;;;5054078;28;861;-59
2022/04/01 11:50:04;;;;;;;;;;;;;;;;;;5053958;28;1007;-59
2022/04/01 11:52:40;;;;;;;;;;;;;;;;;;5053451;28;1918;-59
2022/04/01 11:55:13;;;;;;;;;;;;;;;;;;5053873;28;840;-59
2022/04/01 11:57:39;;;;;;;;;;;;;;;;;;5053370;28;925;-59
2022/04/01 12:00:17;;;;;;;;;;;;;;;;;;5053422;28;916;-59
2022/04/01 12:02:44;;;;;;;;;;;;;;;;;;5053302;28;992;-59
2022/04/01 12:05:10;;;;;;;;;;;;;;;;;;5053220;28;864;-65
2022/04/01 12:10:20;;;;;;;;;;;;;;;;;;5053017;28;696;-66
2022/04/01 12:12:52;;;;;;;;;;;;;;;;;;5034290;28;1926;-66
2022/04/01 12:15:18;;;;;;;;;;;;;;;;;;5052339;28;828;-66
2022/04/01 12:17:47;;;;;;;;;;;;;;;;;;5051586;28;1074;-66
2022/04/01 12:20:13;;;;;;;;;;;;;;;;;;5052210;28;1077;-66
2022/04/01 12:22:39;;;;;;;;;;;;;;;;;;5051420;28;892;-66
2022/04/01 12:25:04;;;;;;;;;;;;;;;;;;5051241;28;1177;-66
2022/04/01 12:27:30;;;;;;;;;;;;;;;;;;5050099;28;1122;-66
2022/04/01 12:29:55;;;;;;;;;;;;;;;;;;5051545;28;1126;-66
2022/04/01 12:32:24;;;;;;;;;;;;;;;;;;5051920;28;1918;-66
2022/04/01 12:34:50;;;;;;;;;;;;;;;;;;5034157;28;1041;-66
2022/04/01 12:37:15;;;;;;;;;;;;;;;;;;5051501;28;1216;-66
2022/04/01 12:39:45;;;;;;;;;;;;;;;;;;5051198;28;1007;-65
2022/04/01 12:42:11;;;;;;;;;;;;;;;;;;5051666;28;919;-66
2022/04/01 12:44:38;;;;;;;;;;;;;;;;;;5050837;28;793;-66
2022/04/01 12:47:03;;;;;;;;;;;;;;;;;;5051377;28;943;-66
2022/04/01 12:49:32;;;;;;;;;;;;;;;;;;5051448;28;908;-66
2022/04/01 12:52:03;;;;;;;;;;;;;;;;;;5051400;28;1967;-65
2022/04/01 12:54:38;;;;;;;;;;;;;;;;;;5051596;28;821;-66
2022/04/01 12:57:07;;;;;;;;;;;;;;;;;;5052028;28;905;-60
2022/04/01 12:59:36;;;;;;;;;;;;;;;;;;5051564;28;875;-59
2022/04/01 13:02:06;;;;;;;;;;;;;;;;;;5051665;28;893;-59
2022/04/01 13:04:39;;;;;;;;;;;;;;;;;;5051424;28;858;-59
2022/04/01 13:07:05;;;;;;;;;;;;;;;;;;5052003;28;833;-59
2022/04/01 13:09:31;;;;;;;;;;;;;;;;;;5051712;28;846;-59
2022/04/01 13:11:58;;;;;;;;;;;;;;;;;;5051807;28;1893;-59
2022/04/01 13:14:27;;;;;;;;;;;;;;;;;;5051412;28;884;-60
2022/04/01 13:16:54;;;;;;;;;;;;;;;;;;5052093;28;837;-59
2022/04/01 13:19:23;;;;;;;;;;;;;;;;;;5034000;28;900;-60
2022/04/01 13:21:49;;;;;;;;;;;;;;;;;;5051394;28;872;-60
2022/04/01 13:24:18;;;;;;;;;;;;;;;;;;5051468;28;1034;-60
2022/04/01 13:26:43;;;;;;;;;;;;;;;;;;5050947;28;963;-60
2022/04/01 13:29:08;;;;;;;;;;;;;;;;;;5051216;28;1187;-60
2022/04/01 13:31:33;;;;;;;;;;;;;;;;;;5033019;28;1898;-60
2022/04/01 13:33:58;;;;;;;;;;;;;;;;;;5051628;28;813;-60
2022/04/01 13:36:24;;;;;;;;;;;;;;;;;;5050751;28;1096;-60
2022/04/01 13:38:49;;;;;;;;;;;;;;;;;;5051161;28;877;-60
2022/04/01 13:41:15;;;;;;;;;;;;;;;;;;5050935;28;1367;-60
2022/04/01 13:43:40;;;;;;;;;;;;;;;;;;5050777;28;783;-60
2022/04/01 13:46:07;;;;;;;;;;;;;;;;;;5051288;28;826;-60
2022/04/01 13:48:32;;;;;;;;;;;;;;;;;;5032937;28;1517;-60
2022/04/01 13:50:57;;;;;;;;;;;;;;;;;;5051361;28;608;-60
2022/04/01 13:53:23;;;;;;;;;;;;;;;;;;5050842;28;1917;-60
2022/04/01 13:55:49;;;;;;;;;;;;;;;;;;5050711;28;798;-60
2022/04/01 13:58:14;;;;;;;;;;;;;;;;;;5033014;28;985;-60
2022/04/01 14:00:41;;;;;;;;;;;;;;;;;;5050617;28;864;-60
2022/04/01 14:03:07;;;;;;;;;;;;;;;;;;5051320;28;821;-60
2022/04/01 14:05:33;;;;;;;;;;;;;;;;;;5050511;28;857;-60
2022/04/01 14:07:58;;;;;;;;;;;;;;;;;;5051029;28;840;-60
2022/04/01 14:10:24;;;;;;;;;;;;;;;;;;5032879;28;849;-60
2022/04/01 14:12:49;;;;;;;;;;;;;;;;;;5050643;28;1913;-61
2022/04/01 14:15:15;;;;;;;;;;;;;;;;;;5066082;28;840;-60
2022/04/01 14:17:40;;;;;;;;;;;;;;;;;;5050764;28;887;-60
2022/04/01 14:20:05;;;;;;;;;;;;;;;;;;5050719;28;833;-60
2022/04/01 14:22:31;;;;;;;;;;;;;;;;;;5050630;28;1155;-60
2022/04/01 14:24:56;;;;;;;;;;;;;;;;;;5032192;28;844;-60
2022/04/01 14:27:21;;;;;;;;;;;;;;;;;;5050788;28;809;-60
2022/04/01 14:32:30;;;;;;;;;;;;;;;;;;5051068;28;1914;-61
2022/04/01 14:34:57;;;;;;;;;;;;;;;;;;5050592;28;821;-60
2022/04/01 14:37:22;;;;;;;;;;;;;;;;;;5050447;28;1152;-60
2022/04/01 14:39:48;;;;;;;;;;;;;;;;;;5050469;28;975;-60
2022/04/01 14:42:13;;;;;;;;;;;;;;;;;;5054403;28;778;-61
2022/04/01 14:44:38;;;;;;;;;;;;;;;;;;5053995;28;821;-60
2022/04/01 14:47:03;;;;;;;;;;;;;;;;;;5054635;28;849;-60
2022/04/01 14:49:29;;;;;;;;;;;;;;;;;;5054127;28;814;-61
2022/04/01 14:51:56;;;;;;;;;;;;;;;;;;5053667;28;1977;-60
2022/04/01 14:54:21;;;;;;;;;;;;;;;;;;5054155;28;912;-59
2022/04/01 14:56:47;;;;;;;;;;;;;;;;;;5053629;28;832;-60
2022/04/01 14:59:13;;;;;;;;;;;;;;;;;;5053951;28;963;-60
2022/04/01 15:01:38;;;;;;;;;;;;;;;;;;5053947;28;1041;-60
2022/04/01 15:04:04;;;;;;;;;;;;;;;;;;5036360;28;892;-60
2022/04/01 15:06:29;;;;;;;;;;;;;;;;;;5054054;28;813;-60
2022/04/01 15:08:55;;;;;;;;;;;;;;;;;;5053999;28;924;-60
2022/04/01 15:11:21;;;;;;;;;;;;;;;;;;5053738;28;1042;-60
2022/04/01 15:13:46;;;;;;;;;;;;;;;;;;5053106;28;1952;-60
2022/04/01 15:16:11;;;;;;;;;;;;;;;;;;5053842;28;952;-60
2022/04/01 15:18:37;;;;;;;;;;;;;;;;;;5053370;28;825;-60
2022/04/01 15:21:03;;;;;;;;;;;;;;;;;;5035544;28;829;-60
2022/04/01 15:23:28;;;;;;;;;;;;;;;;;;5053278;28;766;-60
2022/04/01 15:25:55;;;;;;;;;;;;;;;;;;5035066;28;835;-60
2022/04/01 15:28:21;;;;;;;;;;;;;;;;;;5053487;28;829;-60
2022/04/01 15:30:46;;;;;;;;;;;;;;;;;;5035274;28;848;-60
2022/04/01 15:33:11;;;;;;;;;;;;;;;;;;5052774;28;1905;-60
2022/04/01 15:35:38;;;;;;;;;;;;;;;;;;5053078;28;1073;-60
2022/04/01 15:38:08;;;;;;;;;;;;;;;;;;5052969;28;911;-60
2022/04/01 15:40:34;;;;;;;;;;;;;;;;;;5052994;28;861;-60
2022/04/01 15:43:00;;;;;;;;;;;;;;;;;;5052380;28;887;-60
2022/04/01 15:45:30;;;;;;;;;;;;;;;;;;5052825;28;872;-60
2022/04/01 15:47:56;;;;;;;;;;;;;;;;;;5052213;28;1126;-60
2022/04/01 15:50:22;;;;;;;;;;;;;;;;;;5053331;28;856;-60
2022/04/01 15:52:47;;;;;;;;;;;;;;;;;;5052405;28;1960;-60
2022/04/01 15:55:13;;;;;;;;;;;;;;;;;;5034750;28;826;-61
2022/04/01 15:57:40;;;;;;;;;;;;;;;;;;5066660;28;1176;-60
2022/04/01 16:00:06;;;;;;;;;;;;;;;;;;5050725;28;1204;-61
2022/04/01 16:02:34;;;;;;;;;;;;;;;;;;5051780;28;1150;-61
2022/04/01 16:05:02;;;;;;;;;;;;;;;;;;5052312;28;820;-60
2022/04/01 16:07:29;;;;;;;;;;;;;;;;;;5052759;28;1045;-61
2022/04/01 16:09:58;;;;;;;;;;;;;;;;;;5052269;28;817;-61
2022/04/01 16:12:24;;;;;;;;;;;;;;;;;;5052495;28;1949;-61
2022/04/01 16:14:52;;;;;;;;;;;;;;;;;;5052400;28;864;-61
2022/04/01 16:17:17;;;;;;;;;;;;;;;;;;5052540;28;1031;-61
2022/04/01 16:19:44;;;;;;;;;;;;;;;;;;5052192;28;896;-61
2022/04/01 16:22:11;;;;;;;;;;;;;;;;;;5051697;28;770;-60
2022/04/01 16:24:36;;;;;;;;;;;;;;;;;;5051668;28;1034;-61
2022/04/01 16:27:02;;;;;;;;;;;;;;;;;;5052183;28;809;-61
2022/04/01 16:29:27;;;;;;;;;;;;;;;;;;5052277;28;786;-61
2022/04/01 16:31:52;;;;;;;;;;;;;;;;;;5051815;28;1901;-61
2022/04/01 16:34:17;;;;;;;;;;;;;;;;;;5052556;28;1088;-60
2022/04/01 16:36:44;;;;;;;;;;;;;;;;;;5050814;28;1279;-61
2022/04/01 16:39:09;;;;;;;;;;;;;;;;;;5030795;28;1157;-60
2022/04/01 16:41:35;;;;;;;;;;;;;;;;;;5030487;28;1193;-61
2022/04/01 16:44:00;;;;;;;;;;;;;;;;;;5031160;28;1157;-61
2022/04/01 16:46:25;;;;;;;;;;;;;;;;;;5037462;28;1051;-61
2022/04/01 16:48:51;;;;;;;;;;;;;;;;;;5031923;28;1205;-60
2022/04/01 16:51:16;;;;;;;;;;;;;;;;;;5032716;28;1017;-60
2022/04/01 16:53:41;;;;;;;;;;;;;;;;;;5032224;28;1911;-60
2022/04/01 16:56:06;;;;;;;;;;;;;;;;;;5014051;28;1166;-60
2022/04/01 16:58:32;;;;;;;;;;;;;;;;;;5033048;28;1011;-61
2022/04/01 17:00:57;;;;;;;;;;;;;;;;;;5031551;28;861;-61
2022/04/01 17:03:22;;;;;;;;;;;;;;;;;;5031211;28;1210;-61
2022/04/01 17:14:00;;;;;;;;;;;;;;;;;;5031676;28;687;-60
2022/04/01 17:16:25;;;;;;;;;;;;;;;;;;5031889;28;825;-60
2022/04/01 17:18:51;;;;;;;;;;;;;;;;;;5031703;28;1019;-61
2022/04/01 17:21:17;;;;;;;;;;;;;;;;;;5031444;28;838;-60
2022/04/01 17:23:43;;;;;;;;;;;;;;;;;;4997023;28;1197;-61
2022/04/01 17:26:09;;;;;;;;;;;;;;;;;;5031697;28;823;-61
2022/04/01 17:28:34;;;;;;;;;;;;;;;;;;5031660;28;802;-60
2022/04/01 17:31:00;;;;;;;;;;;;;;;;;;5031357;28;1059;-60
2022/04/01 17:33:26;;;;;;;;;;;;;;;;;;5031145;28;1902;-60
2022/04/01 17:35:54;;;;;;;;;;;;;;;;;;5013052;28;1078;-61
2022/04/01 17:38:21;;;;;;;;;;;;;;;;;;5031244;28;1050;-60
2022/04/01 17:40:47;;;;;;;;;;;;;;;;;;5031245;28;928;-60
2022/04/01 17:43:14;;;;;;;;;;;;;;;;;;5030918;28;846;-60